createdAt,value
2019-01-03T00:00:52.778Z,80.94
2019-01-03T00:01:52.757Z,80.46
2019-01-03T00:02:52.735Z,80.65
2019-01-03T00:03:52.710Z,80.75
2019-01-03T00:04:52.695Z,80.65
2019-01-03T00:05:52.657Z,80.75
2019-01-03T00:06:52.632Z,80.75
2019-01-03T00:07:52.614Z,80.65
2019-01-03T00:08:52.587Z,81.32
2019-01-03T00:09:52.566Z,81.41
2019-01-03T00:10:52.542Z,81.70
2019-01-03T00:11:52.514Z,82.17
2019-01-03T00:12:52.496Z,81.60
2019-01-03T00:13:52.467Z,82.17
2019-01-03T00:14:52.442Z,82.73
2019-01-03T00:15:52.416Z,81.98
2019-01-03T00:16:52.395Z,82.35
2019-01-03T00:17:52.371Z,83.11
2019-01-03T00:18:52.347Z,82.64
2019-01-03T00:19:52.322Z,82.83
2019-01-03T00:20:52.296Z,83.02
2019-01-03T00:21:52.272Z,82.64
2019-01-03T00:22:52.248Z,83.02
2019-01-03T00:23:52.228Z,82.26
2019-01-03T00:24:52.198Z,83.02
2019-01-03T00:25:52.172Z,83.30
2019-01-03T00:26:53.817Z,83.30
2019-01-03T00:27:52.128Z,82.73
2019-01-03T00:28:52.102Z,82.92
2019-01-03T00:29:52.079Z,82.92
2019-01-03T00:30:52.052Z,82.83
2019-01-03T00:31:52.036Z,83.02
2019-01-03T00:32:52.014Z,83.21
2019-01-03T00:33:51.986Z,83.68
2019-01-03T00:34:51.956Z,83.40
2019-01-03T00:35:51.930Z,83.59
2019-01-03T00:36:51.908Z,84.06
2019-01-03T00:37:51.882Z,83.68
2019-01-03T00:38:51.859Z,83.78
2019-01-03T00:39:51.834Z,83.68
2019-01-03T00:40:51.812Z,84.25
2019-01-03T00:41:51.787Z,84.63
2019-01-03T00:42:51.762Z,84.63
2019-01-03T00:43:51.736Z,84.91
2019-01-03T00:44:51.718Z,84.81
2019-01-03T00:45:51.688Z,84.44
2019-01-03T00:46:51.666Z,84.63
2019-01-03T00:47:51.641Z,84.72
2019-01-03T00:48:51.618Z,84.06
2019-01-03T00:49:51.592Z,84.25
2019-01-03T00:50:51.568Z,84.53
2019-01-03T00:51:51.541Z,84.06
2019-01-03T00:52:51.520Z,83.87
2019-01-03T00:53:51.494Z,83.78
2019-01-03T00:54:51.472Z,83.97
2019-01-03T00:55:51.446Z,83.87
2019-01-03T00:56:51.426Z,84.16
2019-01-03T00:57:51.402Z,84.53
2019-01-03T00:58:51.372Z,84.63
2019-01-03T00:59:51.351Z,84.34
2019-01-03T01:00:51.324Z,84.25
2019-01-03T01:01:51.300Z,84.44
2019-01-03T01:02:51.281Z,84.81
2019-01-03T01:03:51.253Z,85.57
2019-01-03T01:04:51.229Z,85.76
2019-01-03T01:05:51.202Z,85.38
2019-01-03T01:06:51.182Z,85.38
2019-01-03T01:07:51.157Z,85.38
2019-01-03T01:08:51.135Z,85.47
2019-01-03T01:09:51.109Z,86.14
2019-01-03T01:10:51.081Z,86.23
2019-01-03T01:11:51.058Z,86.33
2019-01-03T01:12:51.036Z,86.04
2019-01-03T01:13:51.008Z,86.04
2019-01-03T01:14:50.985Z,86.23
2019-01-03T01:15:50.961Z,85.38
2019-01-03T01:16:50.936Z,85.47
2019-01-03T01:17:50.910Z,85.38
2019-01-03T01:18:50.895Z,85.47
2019-01-03T01:19:50.866Z,85.38
2019-01-03T01:20:50.841Z,85.66
2019-01-03T01:21:50.815Z,86.04
2019-01-03T01:22:50.793Z,86.14
2019-01-03T01:23:50.764Z,86.14
2019-01-03T01:24:50.741Z,86.33
2019-01-03T01:25:50.715Z,86.23
2019-01-03T01:26:50.694Z,86.42
2019-01-03T01:27:50.672Z,87.18
2019-01-03T01:28:50.650Z,87.08
2019-01-03T01:29:50.625Z,87.08
2019-01-03T01:30:50.598Z,86.99
2019-01-03T01:31:50.574Z,87.27
2019-01-03T01:32:50.549Z,86.99
2019-01-03T01:33:50.527Z,87.37
2019-01-03T01:34:50.498Z,87.08
2019-01-03T01:35:50.475Z,86.80
2019-01-03T01:36:50.453Z,86.90
2019-01-03T01:37:50.429Z,87.46
2019-01-03T01:38:50.405Z,87.08
2019-01-03T01:39:50.376Z,87.18
2019-01-03T01:40:50.357Z,87.08
2019-01-03T01:41:50.337Z,87.84
2019-01-03T01:42:50.305Z,87.74
2019-01-03T01:43:50.280Z,87.65
2019-01-03T01:44:50.261Z,88.03
2019-01-03T01:45:50.237Z,87.46
2019-01-03T01:46:50.207Z,87.55
2019-01-03T01:47:50.182Z,88.31
2019-01-03T01:48:50.162Z,88.41
2019-01-03T01:49:50.134Z,88.31
2019-01-03T01:50:50.104Z,88.31
2019-01-03T01:51:50.087Z,88.41
2019-01-03T01:52:50.067Z,88.60
2019-01-03T01:53:50.037Z,88.22
2019-01-03T01:54:50.017Z,88.31
2019-01-03T01:55:49.993Z,88.41
2019-01-03T01:56:50.017Z,88.31
2019-01-03T01:57:49.941Z,88.69
2019-01-03T01:58:49.914Z,88.69
2019-01-03T01:59:49.896Z,88.41
2019-01-03T02:00:49.867Z,88.60
2019-01-03T02:01:49.841Z,88.60
2019-01-03T02:02:49.821Z,88.98
2019-01-03T02:03:49.797Z,88.69
2019-01-03T02:04:49.771Z,88.60
2019-01-03T02:05:49.743Z,88.69
2019-01-03T02:06:49.721Z,88.88
2019-01-03T02:07:49.698Z,88.60
2019-01-03T02:08:49.681Z,89.64
2019-01-03T02:09:49.658Z,89.36
2019-01-03T02:10:49.625Z,89.36
2019-01-03T02:11:49.604Z,88.69
2019-01-03T02:12:49.574Z,89.17
2019-01-03T02:13:49.549Z,89.54
2019-01-03T02:14:49.530Z,89.73
2019-01-03T02:15:49.503Z,89.26
2019-01-03T02:16:49.483Z,89.26
2019-01-03T02:17:49.457Z,89.45
2019-01-03T02:18:49.425Z,89.26
2019-01-03T02:19:49.417Z,88.98
2019-01-03T02:20:49.380Z,88.60
2019-01-03T02:21:49.355Z,88.88
2019-01-03T02:22:49.333Z,88.60
2019-01-03T02:23:49.311Z,88.79
2019-01-03T02:24:49.285Z,88.60
2019-01-03T02:25:49.264Z,88.22
2019-01-03T02:26:49.238Z,88.12
2019-01-03T02:27:49.216Z,88.79
2019-01-03T02:28:49.190Z,88.41
2019-01-03T02:29:49.168Z,89.36
2019-01-03T02:30:49.139Z,89.36
2019-01-03T02:31:49.120Z,89.92
2019-01-03T02:32:49.090Z,89.83
2019-01-03T02:33:49.069Z,89.45
2019-01-03T02:34:49.042Z,89.54
2019-01-03T02:35:49.018Z,89.83
2019-01-03T02:36:48.995Z,89.83
2019-01-03T02:37:48.969Z,89.54
2019-01-03T02:38:48.948Z,89.73
2019-01-03T02:39:48.920Z,89.64
2019-01-03T02:40:48.900Z,89.73
2019-01-03T02:41:48.875Z,89.64
2019-01-03T02:42:48.849Z,89.73
2019-01-03T02:43:48.824Z,90.58
2019-01-03T02:44:48.800Z,89.73
2019-01-03T02:45:48.773Z,90.39
2019-01-03T02:46:48.750Z,90.30
2019-01-03T02:47:48.728Z,90.20
2019-01-03T02:48:48.712Z,89.54
2019-01-03T02:49:48.679Z,89.45
2019-01-03T02:50:48.656Z,89.45
2019-01-03T02:51:48.636Z,90.01
2019-01-03T02:52:48.609Z,90.11
2019-01-03T02:53:48.578Z,90.20
2019-01-03T02:54:48.554Z,90.39
2019-01-03T02:55:48.531Z,90.68
2019-01-03T02:56:48.509Z,90.77
2019-01-03T02:57:48.490Z,90.68
2019-01-03T02:58:48.466Z,90.68
2019-01-03T02:59:48.438Z,91.05
2019-01-03T03:00:48.416Z,91.15
2019-01-03T03:01:48.389Z,91.24
2019-01-03T03:02:48.364Z,92.00
2019-01-03T03:03:48.344Z,90.96
2019-01-03T03:04:48.314Z,91.43
2019-01-03T03:05:48.293Z,91.53
2019-01-03T03:06:48.261Z,91.34
2019-01-03T03:07:48.243Z,91.05
2019-01-03T03:08:48.225Z,90.68
2019-01-03T03:09:48.190Z,90.68
2019-01-03T03:10:48.164Z,90.49
2019-01-03T03:11:48.149Z,90.49
2019-01-03T03:12:48.120Z,90.16
2019-01-03T03:13:48.095Z,90.20
2019-01-03T03:14:48.073Z,90.49
2019-01-03T03:15:48.046Z,90.11
2019-01-03T03:16:48.034Z,90.96
2019-01-03T03:17:48.001Z,91.34
2019-01-03T03:18:47.975Z,90.96
2019-01-03T03:19:47.948Z,91.24
2019-01-03T03:20:47.925Z,91.05
2019-01-03T03:21:47.903Z,90.77
2019-01-03T03:22:47.881Z,90.77
2019-01-03T03:23:47.855Z,90.77
2019-01-03T03:24:47.828Z,90.68
2019-01-03T03:25:47.802Z,90.77
2019-01-03T03:26:47.780Z,91.24
2019-01-03T03:27:47.765Z,91.39
2019-01-03T03:28:47.733Z,91.20
2019-01-03T03:29:47.704Z,91.01
2019-01-03T03:30:47.686Z,90.86
2019-01-03T03:31:47.666Z,91.24
2019-01-03T03:32:47.642Z,91.05
2019-01-03T03:33:47.612Z,91.24
2019-01-03T03:34:47.591Z,91.24
2019-01-03T03:35:47.573Z,91.15
2019-01-03T03:36:47.537Z,91.10
2019-01-03T03:37:47.513Z,91.48
2019-01-03T03:38:47.495Z,91.29
2019-01-03T03:39:47.470Z,91.86
2019-01-03T03:40:47.443Z,91.86
2019-01-03T03:41:47.419Z,91.67
2019-01-03T03:42:47.396Z,91.48
2019-01-03T03:43:47.369Z,92.24
2019-01-03T03:44:47.345Z,91.29
2019-01-03T03:45:47.320Z,91.20
2019-01-03T03:46:47.295Z,91.48
2019-01-03T03:47:47.272Z,91.20
2019-01-03T03:48:47.245Z,92.05
2019-01-03T03:49:47.219Z,91.67
2019-01-03T03:50:47.199Z,92.05
2019-01-03T03:51:47.175Z,92.43
2019-01-03T03:52:47.153Z,91.86
2019-01-03T03:53:47.126Z,91.91
2019-01-03T03:54:47.103Z,92.14
2019-01-03T03:55:47.082Z,91.96
2019-01-03T03:56:47.057Z,92.43
2019-01-03T03:57:47.033Z,92.43
2019-01-03T03:58:47.005Z,92.90
2019-01-03T03:59:46.982Z,92.33
2019-01-03T04:00:46.962Z,92.43
2019-01-03T04:01:46.933Z,92.05
2019-01-03T04:02:46.907Z,92.61
2019-01-03T04:03:46.885Z,92.33
2019-01-03T04:04:46.859Z,92.33
2019-01-03T04:05:46.833Z,92.33
2019-01-03T04:06:46.815Z,92.80
2019-01-03T04:07:46.791Z,92.24
2019-01-03T04:08:46.765Z,92.24
2019-01-03T04:09:46.742Z,91.77
2019-01-03T04:10:46.720Z,92.71
2019-01-03T04:11:46.709Z,92.80
2019-01-03T04:12:46.664Z,92.99
2019-01-03T04:13:46.644Z,92.99
2019-01-03T04:14:46.623Z,93.28
2019-01-03T04:15:46.593Z,93.18
2019-01-03T04:16:46.570Z,93.56
2019-01-03T04:17:46.546Z,92.99
2019-01-03T04:18:46.523Z,92.71
2019-01-03T04:19:46.506Z,92.80
2019-01-03T04:20:46.475Z,92.24
2019-01-03T04:21:46.449Z,92.43
2019-01-03T04:22:46.440Z,92.43
2019-01-03T04:23:46.401Z,92.05
2019-01-03T04:24:46.377Z,92.24
2019-01-03T04:25:46.350Z,92.43
2019-01-03T04:26:46.329Z,92.24
2019-01-03T04:27:46.309Z,92.24
2019-01-03T04:28:46.279Z,92.24
2019-01-03T04:29:46.255Z,92.14
2019-01-03T04:30:46.253Z,92.52
2019-01-03T04:31:46.207Z,91.96
2019-01-03T04:32:46.181Z,91.96
2019-01-03T04:33:46.157Z,92.24
2019-01-03T04:34:46.137Z,92.90
2019-01-03T04:35:46.107Z,92.43
2019-01-03T04:36:46.087Z,92.99
2019-01-03T04:37:46.060Z,93.09
2019-01-03T04:38:46.041Z,93.28
2019-01-03T04:39:46.016Z,93.47
2019-01-03T04:40:45.995Z,92.90
2019-01-03T04:41:45.965Z,93.28
2019-01-03T04:42:45.939Z,92.80
2019-01-03T04:43:45.920Z,93.56
2019-01-03T04:44:45.891Z,93.47
2019-01-03T04:45:45.871Z,93.56
2019-01-03T04:46:45.846Z,93.28
2019-01-03T04:47:45.821Z,93.75
2019-01-03T04:48:45.798Z,94.23
2019-01-03T04:49:45.780Z,93.85
2019-01-03T04:50:45.749Z,94.23
2019-01-03T04:51:45.730Z,93.94
2019-01-03T04:52:45.701Z,94.51
2019-01-03T04:53:45.674Z,94.04
2019-01-03T04:54:45.654Z,94.13
2019-01-03T04:55:45.628Z,94.60
2019-01-03T04:56:45.606Z,94.79
2019-01-03T04:57:45.578Z,95.26
2019-01-03T04:58:45.556Z,95.07
2019-01-03T04:59:45.534Z,95.17
2019-01-03T05:00:45.508Z,95.36
2019-01-03T05:01:45.483Z,94.79
2019-01-03T05:02:45.463Z,95.26
2019-01-03T05:03:45.434Z,96.21
2019-01-03T05:04:45.420Z,95.45
2019-01-03T05:05:45.384Z,95.26
2019-01-03T05:06:45.364Z,95.07
2019-01-03T05:07:45.337Z,95.17
2019-01-03T05:08:45.316Z,95.07
2019-01-03T05:09:45.294Z,95.55
2019-01-03T05:10:45.262Z,95.45
2019-01-03T05:11:45.246Z,95.55
2019-01-03T05:12:45.217Z,95.17
2019-01-03T05:13:45.190Z,95.45
2019-01-03T05:14:45.170Z,95.83
2019-01-03T05:15:45.149Z,96.12
2019-01-03T05:16:45.126Z,95.36
2019-01-03T05:17:45.101Z,95.26
2019-01-03T05:18:45.075Z,95.07
2019-01-03T05:19:45.053Z,94.60
2019-01-03T05:20:45.034Z,94.65
2019-01-03T05:21:45.004Z,94.74
2019-01-03T05:22:44.978Z,94.74
2019-01-03T05:23:45.003Z,94.46
2019-01-03T05:24:44.932Z,94.89
2019-01-03T05:25:44.900Z,95.26
2019-01-03T05:26:44.895Z,95.26
2019-01-03T05:27:44.865Z,95.17
2019-01-03T05:28:44.832Z,95.07
2019-01-03T05:29:44.806Z,94.89
2019-01-03T05:30:44.784Z,95.26
2019-01-03T05:31:44.764Z,95.26
2019-01-03T05:32:44.736Z,95.07
2019-01-03T05:33:44.708Z,95.45
2019-01-03T05:34:44.688Z,95.36
2019-01-03T05:35:44.667Z,94.98
2019-01-03T05:36:44.640Z,94.98
2019-01-03T05:37:44.610Z,95.55
2019-01-03T05:38:44.594Z,96.02
2019-01-03T05:39:44.565Z,96.12
2019-01-03T05:40:44.542Z,96.31
2019-01-03T05:41:44.516Z,95.83
2019-01-03T05:42:44.499Z,96.02
2019-01-03T05:43:44.476Z,95.74
2019-01-03T05:44:44.449Z,96.12
2019-01-03T05:45:44.422Z,96.02
2019-01-03T05:46:44.418Z,96.31
2019-01-03T05:47:44.376Z,96.16
2019-01-03T05:48:44.350Z,96.16
2019-01-03T05:49:44.328Z,95.78
2019-01-03T05:50:44.303Z,95.97
2019-01-03T05:51:44.279Z,95.97
2019-01-03T05:52:44.256Z,96.16
2019-01-03T05:53:44.230Z,96.35
2019-01-03T05:54:44.206Z,96.31
2019-01-03T05:55:44.183Z,96.07
2019-01-03T05:56:44.163Z,96.31
2019-01-03T05:57:44.132Z,96.26
2019-01-03T05:58:44.111Z,96.54
2019-01-03T05:59:44.091Z,96.35
2019-01-03T06:00:44.064Z,96.54
2019-01-03T06:01:44.044Z,96.26
2019-01-03T06:02:44.013Z,96.16
2019-01-03T06:03:43.997Z,95.69
2019-01-03T06:04:43.976Z,95.78
2019-01-03T06:05:43.946Z,96.73
2019-01-03T06:06:43.925Z,96.16
2019-01-03T06:07:43.896Z,96.45
2019-01-03T06:08:43.870Z,96.45
2019-01-03T06:09:43.850Z,96.16
2019-01-03T06:10:43.828Z,95.97
2019-01-03T06:11:43.805Z,95.88
2019-01-03T06:12:43.787Z,96.26
2019-01-03T06:13:43.752Z,96.26
2019-01-03T06:14:43.730Z,96.26
2019-01-03T06:15:43.706Z,96.45
2019-01-03T06:16:43.682Z,95.97
2019-01-03T06:17:43.659Z,95.97
2019-01-03T06:18:43.633Z,95.97
2019-01-03T06:19:43.607Z,95.59
2019-01-03T06:20:43.589Z,95.50
2019-01-03T06:21:43.557Z,95.78
2019-01-03T06:22:43.536Z,95.21
2019-01-03T06:23:43.511Z,95.12
2019-01-03T06:24:43.497Z,95.40
2019-01-03T06:25:43.471Z,95.31
2019-01-03T06:26:43.442Z,95.40
2019-01-03T06:27:43.423Z,95.31
2019-01-03T06:28:43.394Z,95.21
2019-01-03T06:29:43.367Z,95.12
2019-01-03T06:30:43.344Z,95.31
2019-01-03T06:31:43.319Z,95.12
2019-01-03T06:32:43.299Z,95.40
2019-01-03T06:33:43.271Z,94.46
2019-01-03T06:34:43.252Z,94.74
2019-01-03T06:35:43.228Z,94.18
2019-01-03T06:36:43.206Z,94.65
2019-01-03T06:37:43.179Z,95.03
2019-01-03T06:38:43.152Z,94.56
2019-01-03T06:39:43.132Z,94.18
2019-01-03T06:40:43.106Z,94.56
2019-01-03T06:41:43.079Z,94.08
2019-01-03T06:42:43.060Z,94.74
2019-01-03T06:43:43.037Z,94.37
2019-01-03T06:44:43.008Z,94.93
2019-01-03T06:45:42.987Z,94.18
2019-01-03T06:46:42.967Z,94.37
2019-01-03T06:47:42.937Z,94.65
2019-01-03T06:48:42.918Z,93.99
2019-01-03T06:49:42.895Z,94.37
2019-01-03T06:50:42.868Z,94.27
2019-01-03T06:51:42.844Z,94.46
2019-01-03T06:52:42.822Z,94.08
2019-01-03T06:53:42.794Z,94.37
2019-01-03T06:54:42.773Z,94.18
2019-01-03T06:55:42.758Z,93.89
2019-01-03T06:56:42.724Z,94.74
2019-01-03T06:57:42.702Z,94.65
2019-01-03T06:58:42.679Z,94.74
2019-01-03T06:59:42.655Z,94.93
2019-01-03T07:00:42.637Z,94.08
2019-01-03T07:01:42.607Z,93.99
2019-01-03T07:02:42.578Z,93.61
2019-01-03T07:03:42.561Z,93.51
2019-01-03T07:04:42.533Z,93.61
2019-01-03T07:05:42.509Z,93.42
2019-01-03T07:06:42.483Z,94.37
2019-01-03T07:07:42.467Z,93.89
2019-01-03T07:08:42.445Z,93.99
2019-01-03T07:09:42.411Z,94.18
2019-01-03T07:10:42.391Z,94.18
2019-01-03T07:11:42.365Z,94.18
2019-01-03T07:12:42.341Z,93.99
2019-01-03T07:13:42.320Z,93.13
2019-01-03T07:14:42.292Z,92.85
2019-01-03T07:15:42.273Z,92.94
2019-01-03T07:16:42.248Z,93.32
2019-01-03T07:17:42.226Z,92.94
2019-01-03T07:18:42.195Z,93.42
2019-01-03T07:19:42.179Z,92.85
2019-01-03T07:20:42.151Z,92.85
2019-01-03T07:21:42.125Z,92.94
2019-01-03T07:22:42.106Z,93.32
2019-01-03T07:23:42.082Z,93.51
2019-01-03T07:24:42.062Z,93.23
2019-01-03T07:25:42.029Z,93.23
2019-01-03T07:26:42.007Z,93.23
2019-01-03T07:27:41.985Z,93.42
2019-01-03T07:28:41.958Z,93.61
2019-01-03T07:29:41.939Z,93.51
2019-01-03T07:30:41.918Z,93.51
2019-01-03T07:31:41.886Z,93.51
2019-01-03T07:32:41.874Z,93.51
2019-01-03T07:33:41.844Z,93.32
2019-01-03T07:34:41.823Z,93.51
2019-01-03T07:35:41.794Z,93.70
2019-01-03T07:36:41.769Z,93.51
2019-01-03T07:37:41.747Z,93.23
2019-01-03T07:38:41.720Z,93.51
2019-01-03T07:39:41.698Z,92.47
2019-01-03T07:40:41.675Z,92.85
2019-01-03T07:41:41.656Z,92.66
2019-01-03T07:42:41.626Z,93.32
2019-01-03T07:43:41.605Z,92.66
2019-01-03T07:44:41.581Z,92.57
2019-01-03T07:45:41.556Z,92.66
2019-01-03T07:46:41.535Z,92.85
2019-01-03T07:47:41.509Z,92.38
2019-01-03T07:48:41.489Z,91.91
2019-01-03T07:49:41.493Z,92.10
2019-01-03T07:50:41.437Z,92.29
2019-01-03T07:51:41.415Z,92.00
2019-01-03T07:52:41.399Z,92.29
2019-01-03T07:53:41.369Z,91.43
2019-01-03T07:54:41.338Z,91.34
2019-01-03T07:55:41.321Z,91.34
2019-01-03T07:56:41.297Z,91.15
2019-01-03T07:57:41.282Z,91.24
2019-01-03T07:58:41.248Z,91.24
2019-01-03T07:59:41.225Z,91.43
2019-01-03T08:00:41.198Z,91.15
2019-01-03T08:01:41.178Z,91.15
2019-01-03T08:02:41.153Z,91.05
2019-01-03T08:03:41.132Z,90.48
2019-01-03T08:04:41.104Z,90.48
2019-01-03T08:05:41.078Z,90.77
2019-01-03T08:06:41.060Z,90.48
2019-01-03T08:07:41.034Z,91.34
2019-01-03T08:08:41.012Z,90.39
2019-01-03T08:09:40.986Z,91.24
2019-01-03T08:10:40.966Z,91.34
2019-01-03T08:11:40.941Z,91.53
2019-01-03T08:12:40.916Z,90.48
2019-01-03T08:13:40.892Z,91.34
2019-01-03T08:14:40.870Z,90.67
2019-01-03T08:15:40.852Z,90.77
2019-01-03T08:16:40.826Z,91.34
2019-01-03T08:17:40.795Z,90.86
2019-01-03T08:18:40.776Z,90.67
2019-01-03T08:19:40.754Z,90.53
2019-01-03T08:20:40.734Z,90.15
2019-01-03T08:21:40.706Z,90.34
2019-01-03T08:22:40.676Z,90.34
2019-01-03T08:23:40.658Z,90.34
2019-01-03T08:24:40.632Z,90.15
2019-01-03T08:25:40.610Z,89.77
2019-01-03T08:26:40.584Z,89.68
2019-01-03T08:27:40.565Z,89.87
2019-01-03T08:28:40.536Z,90.15
2019-01-03T08:29:40.513Z,90.06
2019-01-03T08:30:40.494Z,89.49
2019-01-03T08:31:40.466Z,89.49
2019-01-03T08:32:40.445Z,89.58
2019-01-03T08:33:40.422Z,90.06
2019-01-03T08:34:40.395Z,89.49
2019-01-03T08:35:40.408Z,89.49
2019-01-03T08:36:40.348Z,89.77
2019-01-03T08:37:40.328Z,89.39
2019-01-03T08:38:40.301Z,89.49
2019-01-03T08:39:40.277Z,88.54
2019-01-03T08:40:40.262Z,89.30
2019-01-03T08:41:40.232Z,89.39
2019-01-03T08:42:40.206Z,89.39
2019-01-03T08:43:40.185Z,90.06
2019-01-03T08:44:40.160Z,89.30
2019-01-03T08:45:40.137Z,89.11
2019-01-03T08:46:40.120Z,88.92
2019-01-03T08:47:40.090Z,88.92
2019-01-03T08:48:40.064Z,88.45
2019-01-03T08:49:40.043Z,88.73
2019-01-03T08:50:40.017Z,89.20
2019-01-03T08:51:39.993Z,88.73
2019-01-03T08:52:39.977Z,88.45
2019-01-03T08:53:39.950Z,88.45
2019-01-03T08:54:39.921Z,88.54
2019-01-03T08:55:39.907Z,88.26
2019-01-03T08:56:39.882Z,87.50
2019-01-03T08:57:39.851Z,88.07
2019-01-03T08:58:39.835Z,87.98
2019-01-03T08:59:39.809Z,88.64
2019-01-03T09:00:39.788Z,88.54
2019-01-03T09:01:39.765Z,87.50
2019-01-03T09:02:39.741Z,87.78
2019-01-03T09:03:39.713Z,87.88
2019-01-03T09:04:39.694Z,87.69
2019-01-03T09:05:39.667Z,88.07
2019-01-03T09:06:39.655Z,88.73
2019-01-03T09:07:39.621Z,88.64
2019-01-03T09:08:39.595Z,88.26
2019-01-03T09:09:39.578Z,89.01
2019-01-03T09:10:39.550Z,88.54
2019-01-03T09:11:39.527Z,88.64
2019-01-03T09:12:40.725Z,88.78
2019-01-03T09:13:39.482Z,89.77
2019-01-03T09:14:39.461Z,89.68
2019-01-03T09:15:39.429Z,89.96
2019-01-03T09:16:39.409Z,88.73
2019-01-03T09:17:39.386Z,88.73
2019-01-03T09:18:39.368Z,88.82
2019-01-03T09:19:39.342Z,88.92
2019-01-03T09:20:39.315Z,89.01
2019-01-03T09:21:39.291Z,89.58
2019-01-03T09:22:39.274Z,89.68
2019-01-03T09:23:39.247Z,89.96
2019-01-03T09:24:39.222Z,90.53
2019-01-03T09:25:39.195Z,91.95
2019-01-03T09:26:39.175Z,93.18
2019-01-03T09:27:39.148Z,94.13
2019-01-03T09:28:39.123Z,94.51
2019-01-03T09:29:39.099Z,95.64
2019-01-03T09:30:39.083Z,96.26
2019-01-03T09:31:39.057Z,96.16
2019-01-03T09:32:39.034Z,96.92
2019-01-03T09:33:39.009Z,96.64
2019-01-03T09:34:38.988Z,96.64
2019-01-03T09:35:38.965Z,97.39
2019-01-03T09:36:38.937Z,97.87
2019-01-03T09:37:38.919Z,97.58
2019-01-03T09:38:38.913Z,97.58
2019-01-03T09:39:38.866Z,97.02
2019-01-03T09:40:38.845Z,97.77
2019-01-03T09:41:38.825Z,98.15
2019-01-03T09:42:38.803Z,98.63
2019-01-03T09:43:38.773Z,98.53
2019-01-03T09:44:38.751Z,98.15
2019-01-03T09:45:44.282Z,98.44
2019-01-03T09:46:38.706Z,98.25
2019-01-03T09:47:38.681Z,97.96
2019-01-03T09:48:38.659Z,97.68
2019-01-03T09:49:38.635Z,97.87
2019-01-03T09:50:38.612Z,97.96
2019-01-03T09:51:38.591Z,98.15
2019-01-03T09:52:38.569Z,98.06
2019-01-03T09:53:38.544Z,98.63
2019-01-03T09:54:38.517Z,97.87
2019-01-03T09:55:38.498Z,98.25
2019-01-03T09:56:38.471Z,97.77
2019-01-03T09:57:38.455Z,97.49
2019-01-03T09:58:38.425Z,97.68
2019-01-03T09:59:38.452Z,97.39
2019-01-03T10:00:38.380Z,97.96
2019-01-03T10:01:38.353Z,97.49
2019-01-03T10:02:38.329Z,98.25
2019-01-03T10:03:38.310Z,97.49
2019-01-03T10:04:38.283Z,98.01
2019-01-03T10:05:38.262Z,97.92
2019-01-03T10:06:38.235Z,97.73
2019-01-03T10:07:38.219Z,97.82
2019-01-03T10:08:38.188Z,97.63
2019-01-03T10:09:38.182Z,97.25
2019-01-03T10:10:38.143Z,96.69
2019-01-03T10:11:38.134Z,97.06
2019-01-03T10:12:38.095Z,96.69
2019-01-03T10:13:38.084Z,96.40
2019-01-03T10:14:38.056Z,95.83
2019-01-03T10:15:38.025Z,96.59
2019-01-03T10:16:38.008Z,95.93
2019-01-03T10:17:37.977Z,95.55
2019-01-03T10:18:37.959Z,96.02
2019-01-03T10:19:37.948Z,95.64
2019-01-03T10:20:37.911Z,95.26
2019-01-03T10:21:37.890Z,94.70
2019-01-03T10:22:37.865Z,94.70
2019-01-03T10:23:37.843Z,94.79
2019-01-03T10:24:37.820Z,94.89
2019-01-03T10:25:37.794Z,94.51
2019-01-03T10:26:37.770Z,94.08
2019-01-03T10:27:37.747Z,93.61
2019-01-03T10:28:37.723Z,93.51
2019-01-03T10:29:37.700Z,93.37
2019-01-03T10:30:37.680Z,94.23
2019-01-03T10:31:37.658Z,94.04
2019-01-03T10:32:37.636Z,94.42
2019-01-03T10:33:37.606Z,94.23
2019-01-03T10:34:37.590Z,94.27
2019-01-03T10:35:37.559Z,94.84
2019-01-03T10:36:37.537Z,94.74
2019-01-03T10:37:37.513Z,94.84
2019-01-03T10:38:37.490Z,94.37
2019-01-03T10:39:37.468Z,94.84
2019-01-03T10:40:37.450Z,94.65
2019-01-03T10:41:37.424Z,94.56
2019-01-03T10:42:37.397Z,95.31
2019-01-03T10:43:37.375Z,95.69
2019-01-03T10:44:37.353Z,95.41
2019-01-03T10:45:37.326Z,95.50
2019-01-03T10:46:37.310Z,95.50
2019-01-03T10:47:37.287Z,95.41
2019-01-03T10:48:37.258Z,94.84
2019-01-03T10:49:37.276Z,94.56
2019-01-03T10:50:37.218Z,95.41
2019-01-03T10:51:37.195Z,95.03
2019-01-03T10:52:37.169Z,95.12
2019-01-03T10:53:37.150Z,94.56
2019-01-03T10:54:37.122Z,95.12
2019-01-03T10:55:37.106Z,94.65
2019-01-03T10:56:37.079Z,94.46
2019-01-03T10:57:37.060Z,94.56
2019-01-03T10:58:37.032Z,93.61
2019-01-03T10:59:37.005Z,93.61
2019-01-03T11:00:36.980Z,93.42
2019-01-03T11:01:36.964Z,93.80
2019-01-03T11:02:36.942Z,93.13
2019-01-03T11:03:36.918Z,92.94
2019-01-03T11:04:36.895Z,92.47
2019-01-03T11:05:36.881Z,92.04
2019-01-03T11:06:36.850Z,92.14
2019-01-03T11:07:36.830Z,91.43
2019-01-03T11:08:36.806Z,91.24
2019-01-03T11:09:36.782Z,91.24
2019-01-03T11:10:36.765Z,91.52
2019-01-03T11:11:36.733Z,91.43
2019-01-03T11:12:36.716Z,92.38
2019-01-03T11:13:36.691Z,91.24
2019-01-03T11:14:36.669Z,91.62
2019-01-03T11:15:36.644Z,91.33
2019-01-03T11:16:36.625Z,92.09
2019-01-03T11:17:36.599Z,91.43
2019-01-03T11:18:36.575Z,91.24
2019-01-03T11:19:36.557Z,91.90
2019-01-03T11:20:36.532Z,92.66
2019-01-03T11:21:36.506Z,93.23
2019-01-03T11:22:36.497Z,92.94
2019-01-03T11:23:36.473Z,93.13
2019-01-03T11:24:36.441Z,92.66
2019-01-03T11:25:36.420Z,92.61
2019-01-03T11:26:36.393Z,92.09
2019-01-03T11:27:36.368Z,92.94
2019-01-03T11:28:36.349Z,92.61
2019-01-03T11:29:36.333Z,92.85
2019-01-03T11:30:36.300Z,92.38
2019-01-03T11:31:36.283Z,92.52
2019-01-03T11:32:36.263Z,92.42
2019-01-03T11:33:36.246Z,92.61
2019-01-03T11:34:36.214Z,92.61
2019-01-03T11:35:36.191Z,93.18
2019-01-03T11:36:36.169Z,93.27
2019-01-03T11:37:36.147Z,93.37
2019-01-03T11:38:36.122Z,93.18
2019-01-03T11:39:36.102Z,93.37
2019-01-03T11:40:36.079Z,92.80
2019-01-03T11:41:36.055Z,92.90
2019-01-03T11:42:36.031Z,91.85
2019-01-03T11:43:36.008Z,91.95
2019-01-03T11:44:35.993Z,91.66
2019-01-03T11:45:36.015Z,91.57
2019-01-03T11:46:35.951Z,91.76
2019-01-03T11:47:35.923Z,91.28
2019-01-03T11:48:35.897Z,91.47
2019-01-03T11:49:35.876Z,92.23
2019-01-03T11:50:35.850Z,91.19
2019-01-03T11:51:35.831Z,91.19
2019-01-03T11:52:35.811Z,90.43
2019-01-03T11:53:35.782Z,90.91
2019-01-03T11:54:35.763Z,91.76
2019-01-03T11:55:35.744Z,91.47
2019-01-03T11:56:35.719Z,92.52
2019-01-03T11:57:35.699Z,92.14
2019-01-03T11:58:35.673Z,91.47
2019-01-03T11:59:35.663Z,90.81
2019-01-03T12:00:35.627Z,91.09
2019-01-03T12:01:35.609Z,91.09
2019-01-03T12:02:35.583Z,90.62
2019-01-03T12:03:35.562Z,91.00
2019-01-03T12:04:35.541Z,91.19
2019-01-03T12:05:35.517Z,91.57
2019-01-03T12:06:35.495Z,91.28
2019-01-03T12:07:35.475Z,91.28
2019-01-03T12:08:35.454Z,89.86
2019-01-03T12:09:35.427Z,90.53
2019-01-03T12:10:35.407Z,89.77
2019-01-03T12:11:35.382Z,90.00
2019-01-03T12:12:35.363Z,89.58
2019-01-03T12:13:35.337Z,90.05
2019-01-03T12:14:35.315Z,89.86
2019-01-03T12:15:35.291Z,90.15
2019-01-03T12:16:35.272Z,90.15
2019-01-03T12:17:35.253Z,89.86
2019-01-03T12:18:35.227Z,90.05
2019-01-03T12:19:35.212Z,90.15
2019-01-03T12:20:35.184Z,89.58
2019-01-03T12:21:35.157Z,89.77
2019-01-03T12:22:35.154Z,90.24
2019-01-03T12:23:35.113Z,89.77
2019-01-03T12:24:35.097Z,89.11
2019-01-03T12:25:35.082Z,89.39
2019-01-03T12:26:35.054Z,89.01
2019-01-03T12:27:35.025Z,89.20
2019-01-03T12:28:35.004Z,88.44
2019-01-03T12:29:34.979Z,88.35
2019-01-03T12:30:34.963Z,88.25
2019-01-03T12:31:34.937Z,88.44
2019-01-03T12:32:34.926Z,88.92
2019-01-03T12:33:34.897Z,88.73
2019-01-03T12:34:34.870Z,88.54
2019-01-03T12:35:34.853Z,88.73
2019-01-03T12:36:34.827Z,88.44
2019-01-03T12:37:34.801Z,88.25
2019-01-03T12:38:34.786Z,88.73
2019-01-03T12:39:34.758Z,87.92
2019-01-03T12:40:34.736Z,88.10
2019-01-03T12:41:34.711Z,88.06
2019-01-03T12:42:34.693Z,88.44
2019-01-03T12:43:34.672Z,88.44
2019-01-03T12:44:34.654Z,88.16
2019-01-03T12:45:34.626Z,88.63
2019-01-03T12:46:34.602Z,88.35
2019-01-03T12:47:34.577Z,88.54
2019-01-03T12:48:34.558Z,88.82
2019-01-03T12:49:34.536Z,88.63
2019-01-03T12:50:34.513Z,88.73
2019-01-03T12:51:34.490Z,89.29
2019-01-03T12:52:34.476Z,89.01